Time;durP1;ratioP1;P1;durP2;ratioP2;P2;SDS_P1;SDS_P2;PMS_P1;PMS_P2;Temp;Humidity;BMP_temperature;BMP_pressure;BME280_temperature;BME280_humidity;BME280_pressure;Samples;Min_cycle;Max_cycle;Signal;HPM_P1;HPM_P2
2021/01/06 00:01:16;;;;;;;14.27;12.88;;;28.00;68.00;;;;;;4966891;28;20274;-49
2021/01/06 00:03:48;;;;;;;14.38;12.98;;;28.00;67.90;;;;;;4968416;28;20224;-49
2021/01/06 00:06:23;;;;;;;13.75;12.52;;;28.00;67.80;;;;;;4966449;28;20231;-49
2021/01/06 00:08:53;;;;;;;13.10;11.90;;;28.10;67.90;;;;;;4961260;28;20302;-50
2021/01/06 00:11:32;;;;;;;14.60;13.18;;;28.10;67.90;;;;;;4963686;28;20259;-52
2021/01/06 00:14:02;;;;;;;12.55;11.40;;;28.10;67.80;;;;;;4967114;28;20337;-50
2021/01/06 00:16:33;;;;;;;15.25;12.90;;;28.10;68.10;;;;;;4967833;28;20236;-51
2021/01/06 00:19:04;;;;;;;14.52;12.82;;;28.10;67.90;;;;;;4967844;28;20247;-50
2021/01/06 00:21:38;;;;;;;15.40;13.10;;;28.10;67.80;;;;;;4965883;28;20255;-53
2021/01/06 00:24:09;;;;;;;15.60;14.13;;;28.20;67.80;;;;;;4966189;28;20247;-50
2021/01/06 00:26:39;;;;;;;14.32;13.00;;;28.20;67.80;;;;;;4964643;28;20264;-53
2021/01/06 00:29:10;;;;;;;13.05;11.73;;;28.20;67.80;;;;;;4967469;28;20231;-49
2021/01/06 00:31:40;;;;;;;12.85;11.65;;;28.20;67.90;;;;;;4967646;28;20232;-52
2021/01/06 00:34:12;;;;;;;13.30;12.13;;;28.20;68.00;;;;;;4965822;28;20228;-49
2021/01/06 00:36:43;;;;;;;13.93;12.57;;;28.30;68.00;;;;;;4964831;28;20224;-49
2021/01/06 00:39:13;;;;;;;12.93;11.60;;;28.30;68.00;;;;;;4965808;28;20335;-51
2021/01/06 00:41:44;;;;;;;12.90;11.80;;;28.30;67.90;;;;;;4960963;28;20232;-49
2021/01/06 00:44:14;;;;;;;12.88;11.77;;;28.40;67.90;;;;;;4991047;28;20244;-49
2021/01/06 00:46:45;;;;;;;12.25;11.15;;;28.40;67.80;;;;;;4968002;28;20239;-51
2021/01/06 00:49:17;;;;;;;14.52;13.23;;;28.40;67.70;;;;;;4966102;28;20604;-49
2021/01/06 00:51:50;;;;;;;13.50;12.32;;;28.50;67.50;;;;;;4967460;28;20228;-51
2021/01/06 00:54:20;;;;;;;14.70;13.20;;;28.50;67.40;;;;;;4964161;28;20238;-52
2021/01/06 00:56:51;;;;;;;14.48;13.07;;;28.50;67.20;;;;;;4967079;28;20236;-53
2021/01/06 00:59:22;;;;;;;14.23;12.73;;;28.60;67.10;;;;;;4963395;28;20228;-49
2021/01/06 01:01:52;;;;;;;13.85;12.52;;;28.60;67.10;;;;;;4968433;28;20221;-49
2021/01/06 01:04:24;;;;;;;14.57;12.63;;;28.60;67.00;;;;;;4965494;28;20241;-53
2021/01/06 01:06:55;;;;;;;15.23;13.63;;;28.70;67.00;;;;;;4964615;28;20586;-52
2021/01/06 01:09:25;;;;;;;15.90;14.40;;;28.70;66.80;;;;;;4965371;28;20232;-52
2021/01/06 01:11:55;;;;;;;15.43;13.98;;;28.80;66.60;;;;;;4963364;28;20616;-49
2021/01/06 01:14:26;;;;;;;14.68;13.38;;;28.80;66.40;;;;;;4963632;28;20708;-51
2021/01/06 01:16:57;;;;;;;15.50;14.10;;;28.80;66.20;;;;;;4962888;28;20233;-54
2021/01/06 01:19:28;;;;;;;14.27;12.80;;;28.90;66.10;;;;;;4966949;28;20268;-51
2021/01/06 01:21:59;;;;;;;15.40;13.80;;;28.90;66.00;;;;;;4960485;28;20251;-49
2021/01/06 01:24:30;;;;;;;14.10;12.77;;;29.00;65.90;;;;;;4963196;28;20255;-49
2021/01/06 01:27:01;;;;;;;13.52;12.30;;;29.00;65.90;;;;;;4959551;28;20225;-51
2021/01/06 01:29:31;;;;;;;14.98;13.48;;;29.10;65.60;;;;;;4966985;28;20360;-55
2021/01/06 01:32:02;;;;;;;15.38;13.93;;;29.10;65.40;;;;;;4968386;28;20323;-51
2021/01/06 01:34:33;;;;;;;14.38;13.07;;;29.20;65.30;;;;;;4959249;28;20263;-49
2021/01/06 01:37:04;;;;;;;14.48;13.18;;;29.30;65.30;;;;;;4967231;28;20290;-49
2021/01/06 01:39:34;;;;;;;15.80;14.30;;;29.30;65.10;;;;;;4998577;28;20649;-50
2021/01/06 01:42:05;;;;;;;15.90;14.40;;;29.30;64.90;;;;;;4959000;28;20240;-49
2021/01/06 01:44:50;;;;;;;14.32;13.00;;;29.40;64.90;;;;;;4955151;28;20237;-53
2021/01/06 01:47:21;;;;;;;15.20;13.65;;;29.50;65.20;;;;;;4968848;28;20237;-49
2021/01/06 01:49:53;;;;;;;15.02;13.63;;;29.50;65.00;;;;;;4958798;28;20676;-49
2021/01/06 01:52:27;;;;;;;14.85;13.52;;;29.50;64.70;;;;;;4961730;28;20239;-52
2021/01/06 01:54:58;;;;;;;14.00;12.60;;;29.60;64.70;;;;;;4954610;28;20232;-50
2021/01/06 01:57:30;;;;;;;14.52;13.13;;;29.70;64.70;;;;;;4962758;28;20233;-50
2021/01/06 02:00:02;;;;;;;15.40;14.00;;;29.70;64.50;;;;;;4958411;28;20244;-50
2021/01/06 02:02:36;;;;;;;14.05;12.68;;;29.80;64.30;;;;;;4960462;28;20260;-52
2021/01/06 02:05:10;;;;;;;15.07;13.57;;;29.90;64.10;;;;;;4959097;28;20228;-52
2021/01/06 02:07:42;;;;;;;17.00;15.35;;;29.90;63.90;;;;;;4952086;28;20245;-52
2021/01/06 02:10:16;;;;;;;16.10;14.60;;;30.00;63.60;;;;;;4958395;28;20239;-49
2021/01/06 02:12:52;;;;;;;15.35;13.88;;;30.10;63.30;;;;;;4964504;28;20232;-49
2021/01/06 02:15:30;;;;;;;14.90;13.43;;;30.20;63.20;;;;;;4959687;28;20244;-49
2021/01/06 02:18:00;;;;;;;14.52;13.15;;;30.30;63.00;;;;;;4955674;28;20236;-49
2021/01/06 02:20:32;;;;;;;15.07;13.57;;;30.30;63.00;;;;;;4958571;28;20240;-50
2021/01/06 02:23:04;;;;;;;13.82;12.52;;;30.40;62.70;;;;;;4959083;28;20243;-53
2021/01/06 02:25:39;;;;;;;14.90;13.50;;;30.40;62.80;;;;;;4959258;28;20304;-52
2021/01/06 02:28:09;;;;;;;15.00;13.55;;;30.40;62.70;;;;;;4962921;28;20227;-52
2021/01/06 02:30:40;;;;;;;14.30;13.00;;;30.50;62.60;;;;;;4979382;28;20225;-49
2021/01/06 02:33:11;;;;;;;14.20;12.80;;;30.60;62.50;;;;;;4962844;28;20241;-51
2021/01/06 02:35:41;;;;;;;14.38;13.00;;;30.60;62.40;;;;;;4961290;28;20297;-52
2021/01/06 02:38:13;;;;;;;13.73;12.35;;;30.70;62.20;;;;;;4963771;28;20224;-52
2021/01/06 02:40:43;;;;;;;13.77;12.38;;;30.70;62.00;;;;;;4962667;28;20323;-51
2021/01/06 02:43:14;;;;;;;13.00;11.73;;;30.90;62.20;;;;;;4964916;28;20600;-49
2021/01/06 02:45:45;;;;;;;12.70;11.43;;;30.90;61.10;;;;;;4964603;28;20233;-48
2021/01/06 02:48:15;;;;;;;12.98;11.88;;;31.00;61.00;;;;;;4959309;28;20311;-54
2021/01/06 02:50:46;;;;;;;13.38;12.18;;;31.10;60.40;;;;;;4962554;28;20232;-52
2021/01/06 02:53:21;;;;;;;13.63;12.20;;;31.20;59.80;;;;;;4917893;28;20405;-53
2021/01/06 02:55:51;;;;;;;12.90;11.70;;;31.30;59.80;;;;;;4920047;28;20316;-53
2021/01/06 02:58:23;;;;;;;12.75;11.65;;;31.40;59.80;;;;;;4871244;28;20236;-50
2021/01/06 03:00:54;;;;;;;13.18;12.07;;;31.50;59.90;;;;;;4876724;28;20231;-52
2021/01/06 03:03:27;;;;;;;13.77;12.55;;;31.60;59.50;;;;;;4871092;28;20239;-48
2021/01/06 03:06:01;;;;;;;13.52;12.32;;;31.70;59.00;;;;;;4836979;29;20240;-48
2021/01/06 03:08:33;;;;;;;14.65;13.35;;;31.80;59.20;;;;;;4832176;29;20731;-52
2021/01/06 03:11:04;;;;;;;14.68;13.38;;;31.90;59.00;;;;;;4831973;29;22482;-48
2021/01/06 03:13:35;;;;;;;15.38;14.07;;;32.00;58.80;;;;;;4832629;29;22348;-49
2021/01/06 03:16:06;;;;;;;15.70;14.20;;;32.00;58.30;;;;;;4890316;29;20249;-48
2021/01/06 03:18:37;;;;;;;13.23;11.75;;;32.10;58.00;;;;;;4890840;29;20235;-50
2021/01/06 03:21:08;;;;;;;13.55;12.20;;;32.10;57.90;;;;;;4892940;29;20239;-49
2021/01/06 03:23:42;;;;;;;12.50;11.40;;;32.20;57.50;;;;;;4849052;29;20350;-51
2021/01/06 03:26:15;;;;;;;12.35;11.35;;;32.30;57.20;;;;;;4893334;29;20342;-51
2021/01/06 03:28:46;;;;;;;11.40;10.48;;;32.30;57.50;;;;;;4842289;29;20311;-51
2021/01/06 03:31:17;;;;;;;12.20;11.20;;;32.40;57.90;;;;;;4912942;29;20463;-49
2021/01/06 03:33:49;;;;;;;11.95;10.98;;;32.40;57.60;;;;;;4928111;29;20301;-49
2021/01/06 03:36:21;;;;;;;14.88;13.45;;;32.40;57.50;;;;;;4929034;29;20242;-49
2021/01/06 03:38:55;;;;;;;15.85;14.45;;;32.50;57.50;;;;;;4910409;29;20642;-50
2021/01/06 03:41:25;;;;;;;15.50;13.90;;;32.60;57.00;;;;;;4906861;29;20669;-50
2021/01/06 03:44:03;;;;;;;13.50;12.30;;;32.70;57.20;;;;;;4906513;29;20627;-50
2021/01/06 03:46:35;;;;;;;13.52;12.23;;;32.70;56.70;;;;;;4918618;28;20229;-52
2021/01/06 03:49:06;;;;;;;12.30;11.20;;;32.80;56.90;;;;;;4890116;29;20437;-51
2021/01/06 03:51:40;;;;;;;10.52;9.63;;;32.90;57.10;;;;;;4836353;29;20236;-49
2021/01/06 03:54:20;;;;;;;11.60;10.50;;;33.00;57.00;;;;;;4812985;29;20248;-52
2021/01/06 03:56:51;;;;;;;10.65;9.68;;;33.00;56.70;;;;;;4834997;29;20516;-50
2021/01/06 03:59:23;;;;;;;10.88;9.77;;;33.10;56.70;;;;;;4855282;29;20339;-50
2021/01/06 04:01:58;;;;;;;10.80;9.77;;;33.20;56.20;;;;;;4891386;29;20243;-50
2021/01/06 04:04:31;;;;;;;11.00;9.75;;;33.30;56.30;;;;;;4870762;29;20232;-52
2021/01/06 04:07:02;;;;;;;9.80;8.95;;;33.30;56.00;;;;;;4834481;29;20328;-49
2021/01/06 04:09:35;;;;;;;10.18;9.32;;;33.40;56.00;;;;;;4839486;29;20339;-51
2021/01/06 04:12:08;;;;;;;9.85;8.95;;;33.50;55.70;;;;;;4851949;29;20242;-50
2021/01/06 04:14:39;;;;;;;9.93;9.10;;;33.50;55.80;;;;;;4854654;29;20236;-50
2021/01/06 04:17:17;;;;;;;10.45;9.15;;;33.60;55.70;;;;;;4850969;29;20270;-50
2021/01/06 04:19:49;;;;;;;11.18;10.18;;;33.70;55.20;;;;;;4860375;29;20235;-52
2021/01/06 04:22:24;;;;;;;10.48;9.55;;;33.70;55.10;;;;;;4883393;29;20236;-55
2021/01/06 04:24:56;;;;;;;10.32;9.52;;;33.90;54.90;;;;;;4865429;29;20233;-50
2021/01/06 04:27:27;;;;;;;10.35;9.40;;;33.90;54.60;;;;;;4908397;28;20263;-50
2021/01/06 04:29:57;;;;;;;10.68;9.88;;;33.90;54.50;;;;;;4946102;28;20226;-50
2021/01/06 04:32:31;;;;;;;10.02;9.15;;;34.00;54.30;;;;;;4961469;28;20721;-54
2021/01/06 04:35:02;;;;;;;11.13;9.82;;;34.00;54.30;;;;;;4940451;28;20237;-51
2021/01/06 04:37:33;;;;;;;9.90;9.10;;;34.10;54.30;;;;;;4945583;28;20244;-56
2021/01/06 04:40:05;;;;;;;9.95;9.05;;;34.10;54.50;;;;;;4944021;28;20324;-50
2021/01/06 04:42:36;;;;;;;10.07;9.07;;;34.20;54.50;;;;;;4942800;28;20655;-50
2021/01/06 04:45:11;;;;;;;10.48;9.60;;;34.20;54.40;;;;;;4943967;28;20755;-51
2021/01/06 04:48:17;;;;;;;10.07;9.15;;;34.30;54.20;;;;;;4945346;28;20256;-52
2021/01/06 04:51:16;;;;;;;9.52;8.57;;;34.30;53.80;;;;;;4927139;29;20241;-49
2021/01/06 04:53:59;;;;;;;11.00;9.60;;;34.40;54.10;;;;;;4927205;29;20285;-56
2021/01/06 04:56:40;;;;;;;10.02;9.10;;;34.40;53.40;;;;;;4890351;29;20720;-53
2021/01/06 04:59:18;;;;;;;10.32;9.32;;;34.50;53.00;;;;;;4861121;29;20354;-52
2021/01/06 05:02:07;;;;;;;10.85;9.85;;;34.50;52.70;;;;;;4849744;29;20232;-51
2021/01/06 05:04:51;;;;;;;9.65;8.75;;;34.60;52.80;;;;;;4832629;29;20237;-51
2021/01/06 05:07:25;;;;;;;10.57;9.52;;;34.60;53.30;;;;;;4800582;29;20618;-49
2021/01/06 05:09:58;;;;;;;9.82;8.93;;;34.60;53.10;;;;;;4763675;29;20296;-50
2021/01/06 05:12:32;;;;;;;10.25;9.23;;;34.70;52.70;;;;;;4763071;30;20842;-50
2021/01/06 05:15:11;;;;;;;9.63;8.60;;;34.70;52.90;;;;;;4789202;29;20237;-51
2021/01/06 05:17:42;;;;;;;8.23;7.45;;;34.70;52.60;;;;;;4799867;29;20260;-47
2021/01/06 05:20:13;;;;;;;9.40;8.70;;;34.70;52.80;;;;;;4801147;29;20237;-52
2021/01/06 05:22:44;;;;;;;9.07;8.30;;;34.80;52.80;;;;;;4802015;29;20291;-52
2021/01/06 05:25:16;;;;;;;7.85;7.25;;;34.90;53.00;;;;;;4818681;29;20703;-51
2021/01/06 05:27:47;;;;;;;7.82;7.22;;;34.90;52.80;;;;;;4850807;29;20244;-50
2021/01/06 05:30:24;;;;;;;8.07;7.38;;;35.00;52.80;;;;;;4916356;29;20238;-51
2021/01/06 05:32:57;;;;;;;8.85;7.97;;;35.10;52.10;;;;;;4940748;28;20768;-51
2021/01/06 05:35:29;;;;;;;7.85;7.20;;;35.20;52.20;;;;;;4947634;28;20693;-51
2021/01/06 05:38:00;;;;;;;8.00;7.30;;;35.20;52.30;;;;;;4927819;29;20238;-49
2021/01/06 05:40:32;;;;;;;7.45;6.85;;;35.30;52.30;;;;;;4939354;28;20244;-50
2021/01/06 05:43:05;;;;;;;7.72;7.03;;;35.40;52.40;;;;;;4909946;28;20321;-49
2021/01/06 05:45:43;;;;;;;7.57;6.97;;;35.50;52.40;;;;;;4905834;29;20249;-53
2021/01/06 05:48:18;;;;;;;7.20;6.68;;;35.50;51.80;;;;;;4908796;28;20237;-55
2021/01/06 05:51:01;;;;;;;8.63;7.88;;;35.70;51.90;;;;;;4923449;28;20232;-53
2021/01/06 05:53:36;;;;;;;7.93;7.30;;;35.70;51.30;;;;;;4922096;28;20234;-50
2021/01/06 05:56:27;;;;;;;7.30;6.35;;;35.80;51.60;;;;;;4923466;28;20257;-54
2021/01/06 05:59:19;;;;;;;5.93;5.43;;;35.90;51.60;;;;;;4922035;28;20230;-52
2021/01/06 06:01:53;;;;;;;6.53;5.88;;;35.90;51.40;;;;;;4920931;28;20669;-56
2021/01/06 06:04:44;;;;;;;6.82;6.30;;;36.00;51.20;;;;;;4922325;28;20238;-51
2021/01/06 06:07:25;;;;;;;6.15;5.55;;;36.10;51.30;;;;;;4864947;28;20242;-50
2021/01/06 06:10:29;;;;;;;5.85;5.35;;;36.20;51.10;;;;;;4915193;28;20241;-52
2021/01/06 06:13:08;;;;;;;5.80;5.22;;;36.30;51.00;;;;;;4851031;29;20248;-53
2021/01/06 06:16:01;;;;;;;5.72;5.22;;;36.40;50.40;;;;;;4836878;29;20244;-56
2021/01/06 06:18:57;;;;;;;5.70;5.10;;;36.40;50.30;;;;;;4830194;29;20234;-52
2021/01/06 06:21:36;;;;;;;7.13;5.18;;;36.50;49.90;;;;;;4834253;29;20237;-52
2021/01/06 06:24:25;;;;;;;6.88;5.10;;;36.60;49.90;;;;;;4802859;29;20288;-52
2021/01/06 06:27:03;;;;;;;5.25;4.85;;;36.60;49.70;;;;;;4863191;29;20266;-52
2021/01/06 06:29:37;;;;;;;4.53;4.20;;;36.70;49.40;;;;;;4799762;29;20228;-50
2021/01/06 06:32:09;;;;;;;4.70;4.30;;;36.80;49.00;;;;;;4788575;29;20349;-51
2021/01/06 06:34:41;;;;;;;7.97;4.45;;;36.80;49.20;;;;;;4755387;29;20322;-50
2021/01/06 06:37:12;;;;;;;5.38;4.93;;;36.80;49.20;;;;;;4852094;29;20659;-49
2021/01/06 06:39:44;;;;;;;5.65;5.18;;;36.90;48.90;;;;;;4903230;29;20230;-54
2021/01/06 06:42:24;;;;;;;5.85;5.35;;;37.00;48.90;;;;;;4897846;29;20735;-50
2021/01/06 06:44:58;;;;;;;5.75;5.25;;;37.00;48.30;;;;;;4884133;29;20693;-54
2021/01/06 06:47:46;;;;;;;5.50;5.00;;;37.00;47.90;;;;;;4864554;29;20245;-52
2021/01/06 06:50:32;;;;;;;5.70;5.20;;;37.10;47.60;;;;;;4887654;29;20352;-50
2021/01/06 06:53:08;;;;;;;5.40;4.90;;;37.10;47.80;;;;;;4886048;29;20627;-52
2021/01/06 06:55:44;;;;;;;5.05;4.65;;;37.10;48.30;;;;;;4900660;29;20710;-48
2021/01/06 06:58:44;;;;;;;4.55;4.25;;;37.20;47.90;;;;;;4870154;29;20239;-49
2021/01/06 07:01:16;;;;;;;5.55;4.68;;;37.30;48.10;;;;;;4865183;29;20262;-49
2021/01/06 07:04:03;;;;;;;5.47;4.85;;;37.30;48.00;;;;;;4894095;29;20237;-50
2021/01/06 07:06:34;;;;;;;5.30;4.88;;;37.20;47.80;;;;;;4944491;28;20328;-49
2021/01/06 07:09:05;;;;;;;6.05;5.45;;;37.30;48.10;;;;;;4962724;28;20231;-48
2021/01/06 07:11:37;;;;;;;5.10;4.53;;;37.30;47.30;;;;;;4967197;28;20233;-51
2021/01/06 07:14:24;;;;;;;5.25;4.75;;;37.40;47.80;;;;;;4959712;28;20243;-50
2021/01/06 07:17:13;;;;;;;5.18;4.75;;;37.30;47.80;;;;;;4925273;28;20246;-49
2021/01/06 07:19:57;;;;;;;6.80;4.70;;;37.40;48.00;;;;;;4924217;28;20321;-50
2021/01/06 07:22:39;;;;;;;5.30;4.80;;;37.50;47.10;;;;;;4939293;28;20236;-49
2021/01/06 07:25:23;;;;;;;5.10;4.70;;;37.50;47.40;;;;;;5001354;28;20248;-49
2021/01/06 07:27:54;;;;;;;5.03;4.60;;;37.50;47.20;;;;;;4972840;28;20287;-51
2021/01/06 07:30:32;;;;;;;4.93;4.07;;;37.50;47.20;;;;;;4973157;28;20241;-48
2021/01/06 07:33:10;;;;;;;4.60;4.15;;;37.50;47.20;;;;;;4959438;28;20234;-46
2021/01/06 07:35:42;;;;;;;4.82;4.38;;;37.60;47.10;;;;;;4927577;29;20238;-48
2021/01/06 07:38:12;;;;;;;4.97;4.22;;;37.60;46.90;;;;;;4928320;28;20242;-47
2021/01/06 07:40:43;;;;;;;4.13;3.83;;;37.70;47.00;;;;;;4915149;28;20301;-48
2021/01/06 07:43:22;;;;;;;5.10;4.70;;;37.70;47.00;;;;;;4928059;28;20312;-50
2021/01/06 07:46:05;;;;;;;5.25;4.75;;;37.70;46.40;;;;;;4916039;28;20799;-48
2021/01/06 07:48:57;;;;;;;5.10;4.70;;;37.70;46.00;;;;;;4894814;28;20251;-51
2021/01/06 07:51:40;;;;;;;12.68;11.57;;;37.70;45.80;;;;;;4910075;29;20242;-48
2021/01/06 07:54:17;;;;;;;15.52;13.73;;;37.60;48.50;;;;;;4893997;29;20259;-49
2021/01/06 07:56:50;;;;;;;13.60;12.40;;;37.60;49.10;;;;;;4799177;29;20604;-50
2021/01/06 07:59:23;;;;;;;13.75;12.45;;;37.50;49.20;;;;;;4800759;29;20765;-48
2021/01/06 08:01:58;;;;;;;13.57;12.30;;;37.40;49.40;;;;;;4801494;29;20711;-48
2021/01/06 08:04:34;;;;;;;13.23;12.00;;;37.30;49.50;;;;;;4799467;29;20235;-47
2021/01/06 08:07:07;;;;;;;14.32;12.95;;;37.10;49.60;;;;;;4803015;29;20257;-52
2021/01/06 08:09:39;;;;;;;12.52;11.27;;;36.90;49.60;;;;;;4818790;29;20261;-48
2021/01/06 08:12:23;;;;;;;11.93;10.88;;;36.70;49.60;;;;;;4822421;29;20259;-48
2021/01/06 08:15:07;;;;;;;12.35;10.07;;;36.60;50.00;;;;;;4863998;29;20598;-49
2021/01/06 08:17:46;;;;;;;12.18;11.18;;;36.50;50.00;;;;;;4918419;29;20289;-50
2021/01/06 08:20:21;;;;;;;13.05;11.63;;;36.40;50.50;;;;;;4938668;28;20421;-54
2021/01/06 08:22:57;;;;;;;12.68;11.68;;;36.30;50.80;;;;;;4866144;28;20238;-52
2021/01/06 08:25:29;;;;;;;14.50;13.07;;;36.10;51.10;;;;;;4843180;29;20764;-49
2021/01/06 08:28:00;;;;;;;13.98;12.60;;;36.10;51.00;;;;;;4876626;29;20338;-49
2021/01/06 08:30:31;;;;;;;14.07;12.68;;;36.00;51.10;;;;;;4902174;29;20712;-50
2021/01/06 08:33:05;;;;;;;15.35;11.18;;;35.90;51.30;;;;;;4877070;29;20622;-63
2021/01/06 08:35:38;;;;;;;12.82;11.63;;;35.90;51.60;;;;;;4897034;29;20240;-51
2021/01/06 08:38:25;;;;;;;12.18;11.07;;;35.90;51.50;;;;;;4893862;28;20322;-50
2021/01/06 08:40:56;;;;;;;11.20;10.10;;;35.80;51.20;;;;;;4938913;28;20323;-53
2021/01/06 08:43:29;;;;;;;12.15;11.05;;;35.80;51.20;;;;;;4914876;28;20229;-49
2021/01/06 08:46:00;;;;;;;12.43;11.32;;;35.80;51.20;;;;;;4902395;28;20234;-52
2021/01/06 08:48:33;;;;;;;12.45;11.32;;;35.80;51.40;;;;;;4884544;28;20265;-50
2021/01/06 08:51:09;;;;;;;13.60;11.93;;;35.70;51.30;;;;;;4885531;29;20247;-51
2021/01/06 08:53:42;;;;;;;12.70;11.50;;;35.70;51.10;;;;;;4881677;28;20710;-49
2021/01/06 08:56:12;;;;;;;13.07;11.88;;;35.70;51.50;;;;;;4912634;29;20260;-49
2021/01/06 08:58:45;;;;;;;13.20;12.10;;;35.70;51.90;;;;;;4944369;28;20238;-50
2021/01/06 09:01:35;;;;;;;12.35;11.13;;;35.70;51.50;;;;;;4944319;28;20652;-53
2021/01/06 09:04:09;;;;;;;12.98;11.57;;;35.70;51.40;;;;;;4940121;29;20240;-50
2021/01/06 09:06:49;;;;;;;13.60;12.23;;;35.70;51.40;;;;;;4882885;28;20286;-50
2021/01/06 09:09:36;;;;;;;12.90;11.60;;;35.70;51.30;;;;;;4891305;29;20655;-55
2021/01/06 09:12:25;;;;;;;12.32;11.07;;;35.70;51.60;;;;;;4966133;28;20237;-51
2021/01/06 09:14:57;;;;;;;14.15;11.65;;;35.70;51.80;;;;;;4963984;28;20329;-52
2021/01/06 09:17:34;;;;;;;14.82;13.43;;;35.70;52.20;;;;;;4968911;28;20254;-50
2021/01/06 09:20:07;;;;;;;15.05;13.57;;;35.70;53.80;;;;;;4870231;29;20322;-50
2021/01/06 09:22:38;;;;;;;17.63;15.70;;;35.60;54.40;;;;;;4837897;29;20255;-49
2021/01/06 09:25:12;;;;;;;14.00;12.80;;;35.60;54.50;;;;;;4838271;29;20632;-51
2021/01/06 09:27:43;;;;;;;13.18;12.00;;;35.60;54.20;;;;;;4835403;29;20233;-53
2021/01/06 09:30:22;;;;;;;15.00;13.50;;;35.60;54.40;;;;;;4838090;29;20257;-50
2021/01/06 09:32:53;;;;;;;16.58;15.18;;;35.60;55.30;;;;;;4819255;29;20320;-49
2021/01/06 09:35:26;;;;;;;16.15;14.63;;;35.50;55.40;;;;;;4818394;29;20863;-49
2021/01/06 09:37:59;;;;;;;15.02;13.63;;;35.50;55.70;;;;;;4791993;29;20239;-53
2021/01/06 09:40:31;;;;;;;14.65;13.05;;;35.40;56.00;;;;;;4798979;29;20254;-52
2021/01/06 09:43:03;;;;;;;14.95;13.55;;;35.40;56.40;;;;;;4803375;29;20230;-53
2021/01/06 09:45:34;;;;;;;16.38;14.75;;;35.40;56.40;;;;;;4843748;29;20241;-51
2021/01/06 09:48:06;;;;;;;16.67;15.18;;;35.50;56.30;;;;;;4799150;29;20234;-49
2021/01/06 09:50:37;;;;;;;16.85;15.07;;;35.60;56.10;;;;;;4885387;28;20244;-54
2021/01/06 09:53:09;;;;;;;17.77;15.80;;;35.60;55.80;;;;;;4936702;28;20971;-48
2021/01/06 09:55:42;;;;;;;15.75;13.98;;;35.60;55.80;;;;;;4904855;28;20238;-51
2021/01/06 09:58:15;;;;;;;16.05;14.35;;;35.70;55.80;;;;;;4912243;28;20297;-53
2021/01/06 10:00:49;;;;;;;16.08;14.48;;;35.70;55.60;;;;;;4908726;28;20257;-50
2021/01/06 10:03:19;;;;;;;16.88;15.15;;;35.70;55.40;;;;;;4966484;28;20352;-52
2021/01/06 10:06:06;;;;;;;16.48;14.88;;;35.80;55.30;;;;;;4968975;28;20247;-55
2021/01/06 10:08:41;;;;;;;15.52;14.20;;;35.80;55.30;;;;;;4967790;28;20236;-50
2021/01/06 10:11:25;;;;;;;15.50;14.07;;;35.80;55.20;;;;;;4986169;28;20235;-52
2021/01/06 10:14:06;;;;;;;16.88;15.07;;;35.70;55.10;;;;;;4987681;28;20275;-51
2021/01/06 10:16:38;;;;;;;16.17;14.77;;;35.70;55.30;;;;;;4987781;28;20572;-54
2021/01/06 10:19:12;;;;;;;17.23;15.65;;;35.60;55.30;;;;;;4984560;28;20259;-50
2021/01/06 10:21:54;;;;;;;20.05;14.85;;;35.60;55.80;;;;;;4943545;28;20918;-52
2021/01/06 10:24:49;;;;;;;17.60;16.10;;;35.60;55.90;;;;;;4927255;29;20233;-54
2021/01/06 10:27:27;;;;;;;17.85;16.05;;;35.60;55.80;;;;;;4923166;28;20281;-52
2021/01/06 10:29:58;;;;;;;16.10;14.50;;;35.70;55.80;;;;;;4910051;29;20233;-54
2021/01/06 10:32:44;;;;;;;15.75;14.30;;;35.60;55.60;;;;;;4903928;29;20654;-50
2021/01/06 10:35:36;;;;;;;13.95;12.55;;;35.60;55.40;;;;;;4908593;29;20699;-51
2021/01/06 10:38:28;;;;;;;16.42;14.75;;;35.60;55.30;;;;;;4910696;29;20301;-49
2021/01/06 10:41:14;;;;;;;15.82;14.32;;;35.50;55.30;;;;;;4905072;29;20338;-48
2021/01/06 10:43:47;;;;;;;15.50;14.10;;;35.40;55.60;;;;;;4871422;29;20240;-50
2021/01/06 10:46:39;;;;;;;16.48;14.77;;;35.20;55.40;;;;;;4873776;29;20263;-51
2021/01/06 10:49:14;;;;;;;17.65;16.05;;;35.20;56.30;;;;;;4867237;29;20723;-52
2021/01/06 10:52:23;;;;;;;14.77;13.45;;;35.10;55.70;;;;;;4890066;29;20226;-52
2021/01/06 10:55:03;;;;;;;14.63;12.15;;;34.90;55.80;;;;;;4901433;29;20230;-49
2021/01/06 10:57:36;;;;;;;12.63;11.52;;;34.80;55.80;;;;;;4927658;29;20697;-50
2021/01/06 11:00:21;;;;;;;13.15;12.05;;;34.70;55.90;;;;;;4933824;28;20257;-52
2021/01/06 11:03:15;;;;;;;12.35;11.15;;;34.50;56.20;;;;;;4967378;28;20229;-50
2021/01/06 11:05:58;;;;;;;14.90;13.55;;;34.50;56.50;;;;;;4956634;28;20233;-50
2021/01/06 11:08:48;;;;;;;15.75;14.13;;;34.40;56.50;;;;;;4998276;28;20234;-49
2021/01/06 11:11:39;;;;;;;17.20;15.68;;;34.30;57.10;;;;;;5022054;28;20317;-50
2021/01/06 11:14:22;;;;;;;15.02;13.52;;;34.10;57.80;;;;;;5026021;28;20235;-48
2021/01/06 11:16:54;;;;;;;17.35;15.65;;;34.00;57.40;;;;;;4976747;28;20232;-48
2021/01/06 11:19:43;;;;;;;16.90;15.20;;;33.90;57.90;;;;;;4956937;28;20290;-50
2021/01/06 11:22:32;;;;;;;17.55;15.98;;;33.80;58.40;;;;;;4947366;29;20233;-50
2021/01/06 11:25:03;;;;;;;15.15;13.75;;;33.70;58.80;;;;;;4944197;29;20236;-49
2021/01/06 11:27:45;;;;;;;14.82;13.30;;;33.60;58.50;;;;;;4941341;28;20269;-51
2021/01/06 11:30:24;;;;;;;15.15;13.65;;;33.50;58.80;;;;;;4965227;28;20233;-53
2021/01/06 11:33:27;;;;;;;16.48;14.90;;;33.50;59.00;;;;;;4941323;28;20244;-52
2021/01/06 11:35:58;;;;;;;15.77;14.27;;;33.40;59.10;;;;;;4952837;28;20229;-52
2021/01/06 11:38:50;;;;;;;16.30;14.75;;;33.40;59.00;;;;;;4971478;28;20226;-48
2021/01/06 11:42:12;;;;;;;15.80;14.35;;;33.30;59.30;;;;;;4946115;28;20241;-52
2021/01/06 11:44:46;;;;;;;15.63;14.23;;;33.30;59.40;;;;;;4979419;28;20312;-47
2021/01/06 11:47:32;;;;;;;15.38;13.85;;;33.30;59.40;;;;;;5000350;28;20226;-51
2021/01/06 11:50:17;;;;;;;15.25;13.70;;;33.20;59.70;;;;;;5023782;28;20226;-52
2021/01/06 11:52:48;;;;;;;15.73;14.18;;;33.20;59.60;;;;;;5026855;28;20321;-48
2021/01/06 11:55:43;;;;;;;15.02;13.52;;;33.10;59.70;;;;;;5027218;28;20261;-52
2021/01/06 11:58:39;;;;;;;17.60;15.77;;;33.10;60.10;;;;;;4980743;28;20276;-51
2021/01/06 12:01:35;;;;;;;20.70;18.23;;;33.10;60.20;;;;;;4981048;28;20235;-50
2021/01/06 12:04:37;;;;;;;18.33;16.52;;;33.10;60.40;;;;;;4983279;28;20283;-50
2021/01/06 12:07:32;;;;;;;19.27;17.33;;;33.00;60.40;;;;;;4980977;28;20298;-51
2021/01/06 12:10:20;;;;;;;20.90;18.75;;;33.00;60.60;;;;;;4974159;28;20295;-54
2021/01/06 12:13:03;;;;;;;19.25;17.25;;;32.90;60.70;;;;;;4930995;29;20230;-51
2021/01/06 12:15:51;;;;;;;19.10;16.98;;;32.90;60.90;;;;;;4950256;28;20787;-50
2021/01/06 12:18:33;;;;;;;19.67;17.73;;;32.90;61.20;;;;;;4967905;28;20232;-52
2021/01/06 12:21:04;;;;;;;19.10;17.35;;;32.80;61.30;;;;;;4970470;28;20363;-57
2021/01/06 12:23:42;;;;;;;18.60;17.00;;;32.70;61.10;;;;;;5017301;28;20227;-53
2021/01/06 12:26:44;;;;;;;18.20;16.60;;;32.70;61.70;;;;;;5024983;28;20584;-49
2021/01/06 12:29:16;;;;;;;18.67;16.92;;;32.70;61.90;;;;;;5026698;28;20235;-50
2021/01/06 12:31:51;;;;;;;16.55;15.02;;;32.60;61.70;;;;;;5023761;28;20404;-49
2021/01/06 12:34:31;;;;;;;17.98;16.35;;;32.60;62.00;;;;;;4988716;28;20223;-48
2021/01/06 12:37:05;;;;;;;20.40;18.38;;;32.50;62.20;;;;;;4929610;29;20263;-50
2021/01/06 12:39:36;;;;;;;19.75;17.85;;;32.50;62.30;;;;;;4946620;29;20658;-49
2021/01/06 12:42:30;;;;;;;20.48;18.55;;;32.40;62.30;;;;;;4945642;28;20237;-49
2021/01/06 12:45:16;;;;;;;19.52;17.75;;;32.50;62.80;;;;;;4858452;29;20228;-50
2021/01/06 12:47:50;;;;;;;17.75;16.10;;;32.40;62.90;;;;;;4864099;29;20275;-49
2021/01/06 12:50:23;;;;;;;21.05;19.13;;;32.40;62.80;;;;;;4859143;29;20228;-50
2021/01/06 12:52:54;;;;;;;20.65;18.75;;;32.30;62.80;;;;;;4899067;29;20618;-49
2021/01/06 12:55:55;;;;;;;18.05;16.38;;;32.30;63.00;;;;;;4948547;28;20304;-49
2021/01/06 12:58:29;;;;;;;19.35;17.63;;;32.30;63.40;;;;;;4948425;28;20324;-50
2021/01/06 13:01:03;;;;;;;19.35;17.48;;;32.20;63.40;;;;;;4946577;28;20571;-49
2021/01/06 13:03:48;;;;;;;21.77;19.77;;;32.20;63.70;;;;;;4948697;28;20235;-49
2021/01/06 13:06:25;;;;;;;20.63;18.50;;;32.20;64.00;;;;;;4949395;28;20245;-49
2021/01/06 13:08:57;;;;;;;20.42;18.52;;;32.10;63.90;;;;;;4880213;28;20306;-51
2021/01/06 13:11:34;;;;;;;20.58;18.48;;;32.10;63.90;;;;;;4916050;28;20310;-49
2021/01/06 13:14:15;;;;;;;18.83;16.98;;;32.10;64.30;;;;;;4908775;28;20237;-49
2021/01/06 13:16:54;;;;;;;19.23;17.42;;;32.00;64.40;;;;;;4933370;28;20311;-48
2021/01/06 13:19:36;;;;;;;17.90;16.30;;;32.00;64.60;;;;;;4947867;29;20237;-48
2021/01/06 13:22:32;;;;;;;18.85;17.10;;;32.00;64.70;;;;;;4892742;28;20234;-48